sensor_id;sensor_type;location;lat;lon;timestamp;temperature;humidity
21772;DHT22;11047;47.904;8.110;2023-05-07T00:02:24;8.50;99.90
21772;DHT22;11047;47.904;8.110;2023-05-07T00:04:51;8.60;99.90
21772;DHT22;11047;47.904;8.110;2023-05-07T00:07:18;8.50;99.90
21772;DHT22;11047;47.904;8.110;2023-05-07T00:09:45;8.40;99.90
21772;DHT22;11047;47.904;8.110;2023-05-07T00:12:12;8.30;99.90
21772;DHT22;11047;47.904;8.110;2023-05-07T00:14:41;8.30;99.90
21772;DHT22;11047;47.904;8.110;2023-05-07T00:17:07;8.40;99.90
21772;DHT22;11047;47.904;8.110;2023-05-07T00:19:34;8.40;99.90
21772;DHT22;11047;47.904;8.110;2023-05-07T00:22:01;8.50;99.90
21772;DHT22;11047;47.904;8.110;2023-05-07T00:24:28;8.30;99.90
21772;DHT22;11047;47.904;8.110;2023-05-07T00:26:55;8.30;99.90
21772;DHT22;11047;47.904;8.110;2023-05-07T00:29:23;8.30;99.90
21772;DHT22;11047;47.904;8.110;2023-05-07T00:31:52;8.30;99.90
21772;DHT22;11047;47.904;8.110;2023-05-07T00:34:20;8.90;99.90
21772;DHT22;11047;47.904;8.110;2023-05-07T00:36:46;8.30;99.90
21772;DHT22;11047;47.904;8.110;2023-05-07T00:39:13;8.20;99.90
21772;DHT22;11047;47.904;8.110;2023-05-07T00:41:41;8.30;99.90
21772;DHT22;11047;47.904;8.110;2023-05-07T00:44:08;8.20;99.90
21772;DHT22;11047;47.904;8.110;2023-05-07T00:46:35;8.10;99.90
21772;DHT22;11047;47.904;8.110;2023-05-07T00:49:04;8.10;99.90
21772;DHT22;11047;47.904;8.110;2023-05-07T00:51:31;8.00;99.90
21772;DHT22;11047;47.904;8.110;2023-05-07T00:53:59;7.90;99.90
21772;DHT22;11047;47.904;8.110;2023-05-07T00:56:26;8.00;99.90
21772;DHT22;11047;47.904;8.110;2023-05-07T00:58:53;7.90;99.90
21772;DHT22;11047;47.904;8.110;2023-05-07T01:01:21;7.90;99.90
21772;DHT22;11047;47.904;8.110;2023-05-07T01:03:48;8.00;99.90
21772;DHT22;11047;47.904;8.110;2023-05-07T01:06:16;7.90;99.90
21772;DHT22;11047;47.904;8.110;2023-05-07T01:08:44;7.90;99.90
21772;DHT22;11047;47.904;8.110;2023-05-07T01:11:11;7.90;99.90
21772;DHT22;11047;47.904;8.110;2023-05-07T01:13:39;7.90;99.90
21772;DHT22;11047;47.904;8.110;2023-05-07T01:16:06;8.00;99.90
21772;DHT22;11047;47.904;8.110;2023-05-07T01:18:34;7.90;99.90
21772;DHT22;11047;47.904;8.110;2023-05-07T01:21:03;8.00;99.90
21772;DHT22;11047;47.904;8.110;2023-05-07T01:23:33;8.00;99.90
21772;DHT22;11047;47.904;8.110;2023-05-07T01:26:01;8.20;99.90
21772;DHT22;11047;47.904;8.110;2023-05-07T01:28:28;8.30;99.90
21772;DHT22;11047;47.904;8.110;2023-05-07T01:31:01;8.30;99.90
21772;DHT22;11047;47.904;8.110;2023-05-07T01:33:30;8.30;99.90
21772;DHT22;11047;47.904;8.110;2023-05-07T01:35:59;8.30;99.90
21772;DHT22;11047;47.904;8.110;2023-05-07T01:38:28;8.20;99.90
21772;DHT22;11047;47.904;8.110;2023-05-07T01:40:56;8.00;99.90
21772;DHT22;11047;47.904;8.110;2023-05-07T01:43:24;7.90;99.90
21772;DHT22;11047;47.904;8.110;2023-05-07T01:45:52;7.90;99.90
21772;DHT22;11047;47.904;8.110;2023-05-07T01:48:19;7.80;99.90
21772;DHT22;11047;47.904;8.110;2023-05-07T01:50:47;7.70;99.90
21772;DHT22;11047;47.904;8.110;2023-05-07T01:53:13;7.80;99.90
21772;DHT22;11047;47.904;8.110;2023-05-07T01:55:40;7.80;99.90
21772;DHT22;11047;47.904;8.110;2023-05-07T01:58:08;7.70;99.90
21772;DHT22;11047;47.904;8.110;2023-05-07T02:00:36;8.10;99.90
21772;DHT22;11047;47.904;8.110;2023-05-07T02:03:03;7.80;99.90
21772;DHT22;11047;47.904;8.110;2023-05-07T02:05:30;7.80;99.90
21772;DHT22;11047;47.904;8.110;2023-05-07T02:07:56;7.80;99.90
21772;DHT22;11047;47.904;8.110;2023-05-07T02:10:23;7.70;99.90
21772;DHT22;11047;47.904;8.110;2023-05-07T02:12:50;7.70;99.90
21772;DHT22;11047;47.904;8.110;2023-05-07T02:15:18;7.70;99.90
21772;DHT22;11047;47.904;8.110;2023-05-07T02:18:09;7.70;99.90
21772;DHT22;11047;47.904;8.110;2023-05-07T02:20:36;7.70;99.90
21772;DHT22;11047;47.904;8.110;2023-05-07T02:23:03;7.60;99.90
21772;DHT22;11047;47.904;8.110;2023-05-07T02:25:30;7.50;99.90
21772;DHT22;11047;47.904;8.110;2023-05-07T02:27:57;7.60;99.90
21772;DHT22;11047;47.904;8.110;2023-05-07T02:30:25;7.60;99.90
21772;DHT22;11047;47.904;8.110;2023-05-07T02:32:52;7.60;99.90
21772;DHT22;11047;47.904;8.110;2023-05-07T02:35:19;7.70;99.90
21772;DHT22;11047;47.904;8.110;2023-05-07T02:37:46;7.60;99.90
21772;DHT22;11047;47.904;8.110;2023-05-07T02:40:13;7.40;99.90
21772;DHT22;11047;47.904;8.110;2023-05-07T02:42:40;7.20;99.90
21772;DHT22;11047;47.904;8.110;2023-05-07T02:45:07;7.00;99.90
21772;DHT22;11047;47.904;8.110;2023-05-07T02:47:36;7.00;99.90
21772;DHT22;11047;47.904;8.110;2023-05-07T02:50:03;7.00;99.90
21772;DHT22;11047;47.904;8.110;2023-05-07T02:52:30;7.10;99.90
21772;DHT22;11047;47.904;8.110;2023-05-07T02:54:57;7.30;99.90
21772;DHT22;11047;47.904;8.110;2023-05-07T02:57:24;7.10;99.90
21772;DHT22;11047;47.904;8.110;2023-05-07T02:59:51;7.10;99.90
21772;DHT22;11047;47.904;8.110;2023-05-07T03:02:18;7.20;99.90
21772;DHT22;11047;47.904;8.110;2023-05-07T03:04:47;7.30;99.90
21772;DHT22;11047;47.904;8.110;2023-05-07T03:07:13;7.30;99.90
21772;DHT22;11047;47.904;8.110;2023-05-07T03:09:40;7.30;99.90
21772;DHT22;11047;47.904;8.110;2023-05-07T03:12:07;7.20;99.90
21772;DHT22;11047;47.904;8.110;2023-05-07T03:14:34;6.90;99.90
21772;DHT22;11047;47.904;8.110;2023-05-07T03:17:01;6.90;99.90
21772;DHT22;11047;47.904;8.110;2023-05-07T03:19:28;6.80;99.90
21772;DHT22;11047;47.904;8.110;2023-05-07T03:21:57;6.80;99.90
21772;DHT22;11047;47.904;8.110;2023-05-07T03:24:24;6.80;99.90
21772;DHT22;11047;47.904;8.110;2023-05-07T03:26:51;6.80;99.90
21772;DHT22;11047;47.904;8.110;2023-05-07T03:29:18;6.70;99.90
21772;DHT22;11047;47.904;8.110;2023-05-07T03:31:45;6.80;99.90
21772;DHT22;11047;47.904;8.110;2023-05-07T03:34:12;6.80;99.90
21772;DHT22;11047;47.904;8.110;2023-05-07T03:36:38;6.80;99.90
21772;DHT22;11047;47.904;8.110;2023-05-07T03:39:07;6.70;99.90
21772;DHT22;11047;47.904;8.110;2023-05-07T03:41:34;6.70;99.90
21772;DHT22;11047;47.904;8.110;2023-05-07T03:44:01;6.90;99.90
21772;DHT22;11047;47.904;8.110;2023-05-07T03:46:27;6.80;99.90
21772;DHT22;11047;47.904;8.110;2023-05-07T03:48:54;6.90;99.90
21772;DHT22;11047;47.904;8.110;2023-05-07T03:51:21;6.90;99.90
21772;DHT22;11047;47.904;8.110;2023-05-07T03:53:48;6.90;99.90
21772;DHT22;11047;47.904;8.110;2023-05-07T03:56:16;6.90;99.90
21772;DHT22;11047;47.904;8.110;2023-05-07T03:58:43;7.10;99.90
21772;DHT22;11047;47.904;8.110;2023-05-07T04:01:10;6.80;99.90
21772;DHT22;11047;47.904;8.110;2023-05-07T04:03:37;6.80;99.90
21772;DHT22;11047;47.904;8.110;2023-05-07T04:06:04;6.70;99.90
21772;DHT22;11047;47.904;8.110;2023-05-07T04:08:31;6.70;99.90
21772;DHT22;11047;47.904;8.110;2023-05-07T04:10:58;6.50;99.90
21772;DHT22;11047;47.904;8.110;2023-05-07T04:13:26;6.40;99.90
21772;DHT22;11047;47.904;8.110;2023-05-07T04:15:55;6.50;99.90
21772;DHT22;11047;47.904;8.110;2023-05-07T04:18:22;6.50;99.90
21772;DHT22;11047;47.904;8.110;2023-05-07T04:20:49;6.50;99.90
21772;DHT22;11047;47.904;8.110;2023-05-07T04:23:16;6.70;99.90
21772;DHT22;11047;47.904;8.110;2023-05-07T04:25:42;6.70;99.90
21772;DHT22;11047;47.904;8.110;2023-05-07T04:28:09;6.70;99.90
21772;DHT22;11047;47.904;8.110;2023-05-07T04:30:38;6.70;99.90
21772;DHT22;11047;47.904;8.110;2023-05-07T04:33:05;6.80;99.90
21772;DHT22;11047;47.904;8.110;2023-05-07T04:35:32;6.70;99.90
21772;DHT22;11047;47.904;8.110;2023-05-07T04:37:59;6.70;99.90
21772;DHT22;11047;47.904;8.110;2023-05-07T04:40:27;6.50;99.90
21772;DHT22;11047;47.904;8.110;2023-05-07T04:42:53;6.50;99.90
21772;DHT22;11047;47.904;8.110;2023-05-07T04:45:21;6.50;99.90
21772;DHT22;11047;47.904;8.110;2023-05-07T04:47:49;6.50;99.90
21772;DHT22;11047;47.904;8.110;2023-05-07T04:50:16;6.50;99.90
21772;DHT22;11047;47.904;8.110;2023-05-07T04:52:44;7.40;99.90
21772;DHT22;11047;47.904;8.110;2023-05-07T04:55:12;6.90;99.90
21772;DHT22;11047;47.904;8.110;2023-05-07T04:57:38;7.10;99.90
21772;DHT22;11047;47.904;8.110;2023-05-07T05:00:07;7.20;99.90
21772;DHT22;11047;47.904;8.110;2023-05-07T05:02:35;7.10;99.90
21772;DHT22;11047;47.904;8.110;2023-05-07T05:05:04;7.20;99.90
21772;DHT22;11047;47.904;8.110;2023-05-07T05:07:31;7.40;99.90
21772;DHT22;11047;47.904;8.110;2023-05-07T05:09:58;7.50;99.90
21772;DHT22;11047;47.904;8.110;2023-05-07T05:12:25;7.70;99.90
21772;DHT22;11047;47.904;8.110;2023-05-07T05:14:52;7.80;99.90
21772;DHT22;11047;47.904;8.110;2023-05-07T05:17:18;7.90;99.90
21772;DHT22;11047;47.904;8.110;2023-05-07T05:19:45;8.10;99.90
21772;DHT22;11047;47.904;8.110;2023-05-07T05:22:14;8.40;99.90
21772;DHT22;11047;47.904;8.110;2023-05-07T05:24:40;8.60;99.90
21772;DHT22;11047;47.904;8.110;2023-05-07T05:27:07;8.50;99.90
21772;DHT22;11047;47.904;8.110;2023-05-07T05:29:34;9.40;99.90
21772;DHT22;11047;47.904;8.110;2023-05-07T05:32:01;8.70;99.90
21772;DHT22;11047;47.904;8.110;2023-05-07T05:34:28;8.80;99.90
21772;DHT22;11047;47.904;8.110;2023-05-07T05:36:55;8.90;99.90
21772;DHT22;11047;47.904;8.110;2023-05-07T05:39:23;9.00;99.90
21772;DHT22;11047;47.904;8.110;2023-05-07T05:41:50;9.20;99.90
21772;DHT22;11047;47.904;8.110;2023-05-07T05:44:17;9.20;99.90
21772;DHT22;11047;47.904;8.110;2023-05-07T05:46:44;9.30;99.90
21772;DHT22;11047;47.904;8.110;2023-05-07T05:49:11;9.30;99.90
21772;DHT22;11047;47.904;8.110;2023-05-07T05:51:37;9.40;99.90
21772;DHT22;11047;47.904;8.110;2023-05-07T05:54:04;9.50;99.90
21772;DHT22;11047;47.904;8.110;2023-05-07T05:56:33;9.60;99.90
21772;DHT22;11047;47.904;8.110;2023-05-07T05:58:59;9.70;99.90
21772;DHT22;11047;47.904;8.110;2023-05-07T06:01:26;9.80;99.90
21772;DHT22;11047;47.904;8.110;2023-05-07T06:03:53;9.90;99.90
21772;DHT22;11047;47.904;8.110;2023-05-07T06:06:20;10.00;99.90
21772;DHT22;11047;47.904;8.110;2023-05-07T06:08:47;10.10;99.90
21772;DHT22;11047;47.904;8.110;2023-05-07T06:11:14;10.30;99.90
21772;DHT22;11047;47.904;8.110;2023-05-07T06:13:42;10.40;99.90
21772;DHT22;11047;47.904;8.110;2023-05-07T06:16:09;10.60;99.90
21772;DHT22;11047;47.904;8.110;2023-05-07T06:18:36;10.70;99.90
21772;DHT22;11047;47.904;8.110;2023-05-07T06:21:03;10.80;99.90
21772;DHT22;11047;47.904;8.110;2023-05-07T06:23:30;10.90;99.90
21772;DHT22;11047;47.904;8.110;2023-05-07T06:25:57;11.00;99.90
21772;DHT22;11047;47.904;8.110;2023-05-07T06:28:23;11.20;99.90
21772;DHT22;11047;47.904;8.110;2023-05-07T06:30:52;11.40;99.90
21772;DHT22;11047;47.904;8.110;2023-05-07T06:33:18;11.60;99.90
21772;DHT22;11047;47.904;8.110;2023-05-07T06:35:46;11.70;99.90
21772;DHT22;11047;47.904;8.110;2023-05-07T06:38:13;11.90;99.90
21772;DHT22;11047;47.904;8.110;2023-05-07T06:40:39;12.00;99.90
21772;DHT22;11047;47.904;8.110;2023-05-07T06:43:06;12.10;99.90
21772;DHT22;11047;47.904;8.110;2023-05-07T06:45:33;12.30;99.90
21772;DHT22;11047;47.904;8.110;2023-05-07T06:48:01;12.50;99.90
21772;DHT22;11047;47.904;8.110;2023-05-07T06:50:28;12.70;99.90
21772;DHT22;11047;47.904;8.110;2023-05-07T06:52:55;12.80;99.90
21772;DHT22;11047;47.904;8.110;2023-05-07T06:55:22;12.90;99.90
21772;DHT22;11047;47.904;8.110;2023-05-07T06:57:49;13.20;99.90
21772;DHT22;11047;47.904;8.110;2023-05-07T07:00:16;14.00;99.90
21772;DHT22;11047;47.904;8.110;2023-05-07T07:02:43;14.10;99.90
21772;DHT22;11047;47.904;8.110;2023-05-07T07:05:11;15.30;99.90
21772;DHT22;11047;47.904;8.110;2023-05-07T07:07:38;17.40;99.90
21772;DHT22;11047;47.904;8.110;2023-05-07T07:10:06;19.10;99.90
21772;DHT22;11047;47.904;8.110;2023-05-07T07:12:33;21.50;99.90
21772;DHT22;11047;47.904;8.110;2023-05-07T07:15:00;24.30;99.90
21772;DHT22;11047;47.904;8.110;2023-05-07T07:17:27;26.70;99.90
21772;DHT22;11047;47.904;8.110;2023-05-07T07:19:55;28.00;99.90
21772;DHT22;11047;47.904;8.110;2023-05-07T07:22:23;28.20;99.90
21772;DHT22;11047;47.904;8.110;2023-05-07T07:24:50;26.30;99.90
21772;DHT22;11047;47.904;8.110;2023-05-07T07:27:17;24.30;99.90
21772;DHT22;11047;47.904;8.110;2023-05-07T07:29:43;23.10;99.90
21772;DHT22;11047;47.904;8.110;2023-05-07T07:32:10;22.00;99.90
21772;DHT22;11047;47.904;8.110;2023-05-07T07:34:37;21.20;99.90
21772;DHT22;11047;47.904;8.110;2023-05-07T07:37:04;20.80;99.90
21772;DHT22;11047;47.904;8.110;2023-05-07T07:39:33;20.40;99.90
21772;DHT22;11047;47.904;8.110;2023-05-07T07:42:00;19.80;99.90
21772;DHT22;11047;47.904;8.110;2023-05-07T07:44:27;19.50;99.90
21772;DHT22;11047;47.904;8.110;2023-05-07T07:46:54;19.50;99.90
21772;DHT22;11047;47.904;8.110;2023-05-07T07:49:21;19.10;99.90
21772;DHT22;11047;47.904;8.110;2023-05-07T07:51:48;19.00;99.90
21772;DHT22;11047;47.904;8.110;2023-05-07T07:54:15;19.40;99.90
21772;DHT22;11047;47.904;8.110;2023-05-07T07:56:43;19.40;99.90
21772;DHT22;11047;47.904;8.110;2023-05-07T07:59:10;19.30;99.90
21772;DHT22;11047;47.904;8.110;2023-05-07T08:01:39;19.40;99.90
21772;DHT22;11047;47.904;8.110;2023-05-07T08:04:06;19.50;99.90
21772;DHT22;11047;47.904;8.110;2023-05-07T08:06:33;19.80;99.90
21772;DHT22;11047;47.904;8.110;2023-05-07T08:09:00;19.60;99.90
21772;DHT22;11047;47.904;8.110;2023-05-07T08:11:27;19.80;99.90
21772;DHT22;11047;47.904;8.110;2023-05-07T08:13:56;20.00;99.90
21772;DHT22;11047;47.904;8.110;2023-05-07T08:16:23;20.10;99.90
21772;DHT22;11047;47.904;8.110;2023-05-07T08:18:50;20.10;99.90
21772;DHT22;11047;47.904;8.110;2023-05-07T08:21:17;20.30;99.90
21772;DHT22;11047;47.904;8.110;2023-05-07T08:23:44;20.50;99.90
21772;DHT22;11047;47.904;8.110;2023-05-07T08:26:11;20.70;99.90
21772;DHT22;11047;47.904;8.110;2023-05-07T08:28:38;20.90;99.90
21772;DHT22;11047;47.904;8.110;2023-05-07T08:31:06;21.20;99.90
21772;DHT22;11047;47.904;8.110;2023-05-07T08:33:33;21.00;99.90
21772;DHT22;11047;47.904;8.110;2023-05-07T08:36:00;21.10;99.90
21772;DHT22;11047;47.904;8.110;2023-05-07T08:38:27;21.20;99.90
21772;DHT22;11047;47.904;8.110;2023-05-07T08:40:53;21.50;99.90
21772;DHT22;11047;47.904;8.110;2023-05-07T08:43:21;21.70;99.90
21772;DHT22;11047;47.904;8.110;2023-05-07T08:45:53;21.70;99.90
21772;DHT22;11047;47.904;8.110;2023-05-07T08:48:23;21.60;99.90
21772;DHT22;11047;47.904;8.110;2023-05-07T08:50:52;21.10;99.90
21772;DHT22;11047;47.904;8.110;2023-05-07T08:53:20;20.60;99.90
21772;DHT22;11047;47.904;8.110;2023-05-07T08:55:47;20.20;99.90
21772;DHT22;11047;47.904;8.110;2023-05-07T08:58:14;20.20;99.90
21772;DHT22;11047;47.904;8.110;2023-05-07T09:00:42;19.80;99.90
21772;DHT22;11047;47.904;8.110;2023-05-07T09:03:08;19.60;99.90
21772;DHT22;11047;47.904;8.110;2023-05-07T09:05:39;19.50;99.90
21772;DHT22;11047;47.904;8.110;2023-05-07T09:08:08;19.40;99.90
21772;DHT22;11047;47.904;8.110;2023-05-07T09:10:35;19.30;99.90
21772;DHT22;11047;47.904;8.110;2023-05-07T09:13:03;19.10;99.90
21772;DHT22;11047;47.904;8.110;2023-05-07T09:15:30;19.10;99.90
21772;DHT22;11047;47.904;8.110;2023-05-07T09:17:59;19.00;99.90
21772;DHT22;11047;47.904;8.110;2023-05-07T09:20:30;19.00;99.90
21772;DHT22;11047;47.904;8.110;2023-05-07T09:22:58;19.10;99.90
21772;DHT22;11047;47.904;8.110;2023-05-07T09:25:28;19.20;99.90
21772;DHT22;11047;47.904;8.110;2023-05-07T09:27:55;19.10;99.90
21772;DHT22;11047;47.904;8.110;2023-05-07T09:30:22;18.90;99.90
21772;DHT22;11047;47.904;8.110;2023-05-07T09:32:49;18.70;99.90
21772;DHT22;11047;47.904;8.110;2023-05-07T09:35:17;18.50;99.90
21772;DHT22;11047;47.904;8.110;2023-05-07T09:37:46;18.30;99.90
21772;DHT22;11047;47.904;8.110;2023-05-07T09:40:21;18.10;99.90
21772;DHT22;11047;47.904;8.110;2023-05-07T09:42:49;17.80;99.90
21772;DHT22;11047;47.904;8.110;2023-05-07T09:45:16;17.60;99.90
21772;DHT22;11047;47.904;8.110;2023-05-07T09:47:48;17.40;99.90
21772;DHT22;11047;47.904;8.110;2023-05-07T09:50:17;17.20;99.90
21772;DHT22;11047;47.904;8.110;2023-05-07T09:52:44;16.90;99.90
21772;DHT22;11047;47.904;8.110;2023-05-07T09:55:12;16.70;99.90
21772;DHT22;11047;47.904;8.110;2023-05-07T09:57:42;16.70;99.90
21772;DHT22;11047;47.904;8.110;2023-05-07T10:00:11;16.50;99.90
21772;DHT22;11047;47.904;8.110;2023-05-07T10:02:39;16.30;99.90
21772;DHT22;11047;47.904;8.110;2023-05-07T10:05:12;16.00;99.90
21772;DHT22;11047;47.904;8.110;2023-05-07T10:07:40;15.80;99.90
21772;DHT22;11047;47.904;8.110;2023-05-07T10:10:08;15.70;99.90
21772;DHT22;11047;47.904;8.110;2023-05-07T10:12:35;15.50;99.90
21772;DHT22;11047;47.904;8.110;2023-05-07T10:15:08;15.70;99.90
21772;DHT22;11047;47.904;8.110;2023-05-07T10:17:36;15.60;99.90
21772;DHT22;11047;47.904;8.110;2023-05-07T10:20:03;15.70;99.90
21772;DHT22;11047;47.904;8.110;2023-05-07T10:22:36;15.40;99.90
21772;DHT22;11047;47.904;8.110;2023-05-07T10:25:07;15.30;99.90
21772;DHT22;11047;47.904;8.110;2023-05-07T10:27:36;15.20;99.90
21772;DHT22;11047;47.904;8.110;2023-05-07T10:30:12;15.10;99.90
21772;DHT22;11047;47.904;8.110;2023-05-07T10:32:45;15.20;99.90
21772;DHT22;11047;47.904;8.110;2023-05-07T10:35:17;15.20;99.90
21772;DHT22;11047;47.904;8.110;2023-05-07T10:37:45;15.30;99.90
21772;DHT22;11047;47.904;8.110;2023-05-07T10:40:12;15.30;99.90
21772;DHT22;11047;47.904;8.110;2023-05-07T10:42:53;15.40;99.90
21772;DHT22;11047;47.904;8.110;2023-05-07T10:45:23;15.40;99.90
21772;DHT22;11047;47.904;8.110;2023-05-07T10:48:09;15.50;99.90
21772;DHT22;11047;47.904;8.110;2023-05-07T10:50:37;15.80;99.90
21772;DHT22;11047;47.904;8.110;2023-05-07T10:53:24;16.00;99.90
21772;DHT22;11047;47.904;8.110;2023-05-07T10:59:34;16.60;99.90
21772;DHT22;11047;47.904;8.110;2023-05-07T11:02:08;16.90;99.90
21772;DHT22;11047;47.904;8.110;2023-05-07T11:04:37;17.10;99.90
21772;DHT22;11047;47.904;8.110;2023-05-07T11:07:37;17.50;99.90
21772;DHT22;11047;47.904;8.110;2023-05-07T11:10:05;17.90;99.90
21772;DHT22;11047;47.904;8.110;2023-05-07T11:12:49;17.80;99.90
21772;DHT22;11047;47.904;8.110;2023-05-07T11:15:36;17.60;99.90
21772;DHT22;11047;47.904;8.110;2023-05-07T11:18:04;17.60;99.90
21772;DHT22;11047;47.904;8.110;2023-05-07T11:20:52;17.30;99.90
21772;DHT22;11047;47.904;8.110;2023-05-07T11:23:57;17.60;99.90
21772;DHT22;11047;47.904;8.110;2023-05-07T11:26:24;17.70;99.90
21772;DHT22;11047;47.904;8.110;2023-05-07T11:28:52;17.90;99.90
21772;DHT22;11047;47.904;8.110;2023-05-07T11:31:23;18.00;99.90
21772;DHT22;11047;47.904;8.110;2023-05-07T11:33:53;18.10;99.90
21772;DHT22;11047;47.904;8.110;2023-05-07T11:36:22;17.90;99.90
21772;DHT22;11047;47.904;8.110;2023-05-07T11:38:49;17.70;99.90
21772;DHT22;11047;47.904;8.110;2023-05-07T11:41:16;17.40;99.90
21772;DHT22;11047;47.904;8.110;2023-05-07T11:43:58;17.40;99.90
21772;DHT22;11047;47.904;8.110;2023-05-07T11:46:27;17.40;99.90
21772;DHT22;11047;47.904;8.110;2023-05-07T11:48:55;17.20;99.90
21772;DHT22;11047;47.904;8.110;2023-05-07T11:51:23;17.20;99.90
21772;DHT22;11047;47.904;8.110;2023-05-07T11:53:51;17.20;99.90
21772;DHT22;11047;47.904;8.110;2023-05-07T11:56:19;17.20;99.90
21772;DHT22;11047;47.904;8.110;2023-05-07T11:58:47;17.10;99.90
21772;DHT22;11047;47.904;8.110;2023-05-07T12:01:15;17.20;99.90
21772;DHT22;11047;47.904;8.110;2023-05-07T12:03:45;17.30;99.90
21772;DHT22;11047;47.904;8.110;2023-05-07T12:06:15;17.50;99.90
21772;DHT22;11047;47.904;8.110;2023-05-07T12:08:43;17.60;99.90
21772;DHT22;11047;47.904;8.110;2023-05-07T12:11:13;17.60;99.90
21772;DHT22;11047;47.904;8.110;2023-05-07T12:13:42;17.50;99.90
21772;DHT22;11047;47.904;8.110;2023-05-07T12:16:09;17.60;99.90
21772;DHT22;11047;47.904;8.110;2023-05-07T12:18:36;17.60;99.90
21772;DHT22;11047;47.904;8.110;2023-05-07T12:21:04;17.80;99.90
21772;DHT22;11047;47.904;8.110;2023-05-07T12:23:33;18.00;99.90
21772;DHT22;11047;47.904;8.110;2023-05-07T12:26:01;18.00;99.90
21772;DHT22;11047;47.904;8.110;2023-05-07T12:28:28;17.90;99.90
21772;DHT22;11047;47.904;8.110;2023-05-07T12:30:57;17.90;99.90
21772;DHT22;11047;47.904;8.110;2023-05-07T12:33:30;17.80;99.90
21772;DHT22;11047;47.904;8.110;2023-05-07T12:35:58;17.60;99.90
21772;DHT22;11047;47.904;8.110;2023-05-07T12:38:38;17.60;99.90
21772;DHT22;11047;47.904;8.110;2023-05-07T12:41:06;17.40;99.90
21772;DHT22;11047;47.904;8.110;2023-05-07T12:43:33;17.30;99.90
21772;DHT22;11047;47.904;8.110;2023-05-07T12:46:01;17.40;99.90
21772;DHT22;11047;47.904;8.110;2023-05-07T12:48:29;17.30;99.90
21772;DHT22;11047;47.904;8.110;2023-05-07T12:50:57;17.10;99.90
21772;DHT22;11047;47.904;8.110;2023-05-07T12:53:25;17.00;99.90
21772;DHT22;11047;47.904;8.110;2023-05-07T12:55:55;16.80;99.90
21772;DHT22;11047;47.904;8.110;2023-05-07T12:58:25;16.60;99.90
21772;DHT22;11047;47.904;8.110;2023-05-07T13:00:53;16.40;99.90
21772;DHT22;11047;47.904;8.110;2023-05-07T13:03:24;16.00;99.90
21772;DHT22;11047;47.904;8.110;2023-05-07T13:05:51;15.90;99.90
21772;DHT22;11047;47.904;8.110;2023-05-07T13:08:26;15.80;99.90
21772;DHT22;11047;47.904;8.110;2023-05-07T13:10:54;15.60;99.90
21772;DHT22;11047;47.904;8.110;2023-05-07T13:13:21;15.50;99.90
21772;DHT22;11047;47.904;8.110;2023-05-07T13:15:48;15.20;99.90
21772;DHT22;11047;47.904;8.110;2023-05-07T13:18:15;15.30;99.90
21772;DHT22;11047;47.904;8.110;2023-05-07T13:20:42;15.20;99.90
21772;DHT22;11047;47.904;8.110;2023-05-07T13:23:09;15.10;99.90
21772;DHT22;11047;47.904;8.110;2023-05-07T13:25:35;14.90;99.90
21772;DHT22;11047;47.904;8.110;2023-05-07T13:28:04;14.70;99.90
21772;DHT22;11047;47.904;8.110;2023-05-07T13:30:31;14.40;99.90
21772;DHT22;11047;47.904;8.110;2023-05-07T13:32:58;14.30;99.90
21772;DHT22;11047;47.904;8.110;2023-05-07T13:35:24;14.30;99.90
21772;DHT22;11047;47.904;8.110;2023-05-07T13:37:51;14.00;99.90
21772;DHT22;11047;47.904;8.110;2023-05-07T13:40:20;14.00;99.90
21772;DHT22;11047;47.904;8.110;2023-05-07T13:42:47;13.90;99.90
21772;DHT22;11047;47.904;8.110;2023-05-07T13:45:15;13.60;99.90
21772;DHT22;11047;47.904;8.110;2023-05-07T13:47:42;13.50;99.90
21772;DHT22;11047;47.904;8.110;2023-05-07T13:50:10;13.50;99.90
21772;DHT22;11047;47.904;8.110;2023-05-07T13:52:41;13.50;99.90
21772;DHT22;11047;47.904;8.110;2023-05-07T13:55:09;13.50;99.90
21772;DHT22;11047;47.904;8.110;2023-05-07T13:57:35;13.60;99.90
21772;DHT22;11047;47.904;8.110;2023-05-07T14:00:03;13.60;99.90
21772;DHT22;11047;47.904;8.110;2023-05-07T14:02:32;13.70;99.90
21772;DHT22;11047;47.904;8.110;2023-05-07T14:04:59;13.70;99.90
21772;DHT22;11047;47.904;8.110;2023-05-07T14:07:25;13.70;99.90
21772;DHT22;11047;47.904;8.110;2023-05-07T14:09:52;13.80;99.90
21772;DHT22;11047;47.904;8.110;2023-05-07T14:12:19;13.90;99.90
21772;DHT22;11047;47.904;8.110;2023-05-07T14:14:46;14.00;99.90
21772;DHT22;11047;47.904;8.110;2023-05-07T14:17:15;14.10;99.90
21772;DHT22;11047;47.904;8.110;2023-05-07T14:19:44;14.10;99.90
21772;DHT22;11047;47.904;8.110;2023-05-07T14:22:10;14.30;99.90
21772;DHT22;11047;47.904;8.110;2023-05-07T14:24:38;14.10;99.90
21772;DHT22;11047;47.904;8.110;2023-05-07T14:27:05;14.00;99.90
21772;DHT22;11047;47.904;8.110;2023-05-07T14:29:32;13.90;99.90
21772;DHT22;11047;47.904;8.110;2023-05-07T14:32:01;13.90;99.90
21772;DHT22;11047;47.904;8.110;2023-05-07T14:34:28;14.00;99.90
21772;DHT22;11047;47.904;8.110;2023-05-07T14:36:56;14.10;99.90
21772;DHT22;11047;47.904;8.110;2023-05-07T14:39:23;14.30;99.90
21772;DHT22;11047;47.904;8.110;2023-05-07T14:41:51;14.50;99.90
21772;DHT22;11047;47.904;8.110;2023-05-07T14:44:20;14.60;99.90
21772;DHT22;11047;47.904;8.110;2023-05-07T14:46:46;14.90;99.90
21772;DHT22;11047;47.904;8.110;2023-05-07T14:49:14;15.20;99.90
21772;DHT22;11047;47.904;8.110;2023-05-07T14:51:43;15.20;99.90
21772;DHT22;11047;47.904;8.110;2023-05-07T14:54:11;15.30;99.90
21772;DHT22;11047;47.904;8.110;2023-05-07T14:56:39;15.50;99.90
21772;DHT22;11047;47.904;8.110;2023-05-07T14:59:06;15.50;99.90
21772;DHT22;11047;47.904;8.110;2023-05-07T15:01:34;15.60;99.90
21772;DHT22;11047;47.904;8.110;2023-05-07T15:04:02;15.80;99.90
21772;DHT22;11047;47.904;8.110;2023-05-07T15:06:29;15.80;99.90
21772;DHT22;11047;47.904;8.110;2023-05-07T15:08:56;15.80;99.90
21772;DHT22;11047;47.904;8.110;2023-05-07T15:11:24;15.60;99.90
21772;DHT22;11047;47.904;8.110;2023-05-07T15:13:51;15.70;99.90
21772;DHT22;11047;47.904;8.110;2023-05-07T15:16:18;15.80;99.90
21772;DHT22;11047;47.904;8.110;2023-05-07T15:18:46;15.70;99.90
21772;DHT22;11047;47.904;8.110;2023-05-07T15:21:13;15.60;99.90
21772;DHT22;11047;47.904;8.110;2023-05-07T15:23:40;15.80;99.90
21772;DHT22;11047;47.904;8.110;2023-05-07T15:26:09;15.80;99.90
21772;DHT22;11047;47.904;8.110;2023-05-07T15:28:37;15.70;99.90
21772;DHT22;11047;47.904;8.110;2023-05-07T15:31:04;15.60;99.90
21772;DHT22;11047;47.904;8.110;2023-05-07T15:33:32;15.50;99.90
21772;DHT22;11047;47.904;8.110;2023-05-07T15:35:59;15.60;99.90
21772;DHT22;11047;47.904;8.110;2023-05-07T15:38:26;15.60;99.90
21772;DHT22;11047;47.904;8.110;2023-05-07T15:40:53;15.50;99.90
21772;DHT22;11047;47.904;8.110;2023-05-07T15:43:20;15.30;99.90
21772;DHT22;11047;47.904;8.110;2023-05-07T15:45:48;15.20;99.90
21772;DHT22;11047;47.904;8.110;2023-05-07T15:48:15;15.20;99.90